sensor_id;sensor_type;location;lat;lon;timestamp;P1;durP1;ratioP1;P2;durP2;ratioP2
80340;SDS011;69656;44.498;0.166;2023-07-24T00:04:42;7.47;;;2.97;;
80340;SDS011;69656;44.498;0.166;2023-07-24T00:10:14;6.70;;;4.43;;
80340;SDS011;69656;44.498;0.166;2023-07-24T00:15:47;3.87;;;3.23;;
80340;SDS011;69656;44.498;0.166;2023-07-24T00:21:20;2.90;;;2.63;;
80340;SDS011;69656;44.498;0.166;2023-07-24T00:26:53;3.27;;;2.83;;
80340;SDS011;69656;44.498;0.166;2023-07-24T00:32:26;3.13;;;2.83;;
80340;SDS011;69656;44.498;0.166;2023-07-24T00:37:58;5.40;;;3.33;;
80340;SDS011;69656;44.498;0.166;2023-07-24T00:43:30;4.53;;;3.63;;
80340;SDS011;69656;44.498;0.166;2023-07-24T00:49:03;3.37;;;3.00;;
80340;SDS011;69656;44.498;0.166;2023-07-24T00:54:36;3.67;;;3.23;;
80340;SDS011;69656;44.498;0.166;2023-07-24T01:00:08;3.77;;;3.30;;
80340;SDS011;69656;44.498;0.166;2023-07-24T01:05:41;3.97;;;2.83;;
80340;SDS011;69656;44.498;0.166;2023-07-24T01:11:17;8.70;;;4.23;;
80340;SDS011;69656;44.498;0.166;2023-07-24T01:16:46;6.20;;;3.40;;
80340;SDS011;69656;44.498;0.166;2023-07-24T01:22:21;4.40;;;3.23;;
80340;SDS011;69656;44.498;0.166;2023-07-24T01:27:53;4.07;;;3.20;;
80340;SDS011;69656;44.498;0.166;2023-07-24T01:33:25;5.30;;;3.40;;
80340;SDS011;69656;44.498;0.166;2023-07-24T01:38:58;4.57;;;3.57;;
80340;SDS011;69656;44.498;0.166;2023-07-24T01:44:30;4.23;;;3.77;;
80340;SDS011;69656;44.498;0.166;2023-07-24T01:50:03;4.67;;;3.87;;
80340;SDS011;69656;44.498;0.166;2023-07-24T01:55:36;5.97;;;4.37;;
80340;SDS011;69656;44.498;0.166;2023-07-24T02:01:10;7.03;;;3.80;;
80340;SDS011;69656;44.498;0.166;2023-07-24T02:06:42;8.80;;;4.53;;
80340;SDS011;69656;44.498;0.166;2023-07-24T02:12:15;8.20;;;4.43;;
80340;SDS011;69656;44.498;0.166;2023-07-24T02:17:48;7.17;;;4.47;;
80340;SDS011;69656;44.498;0.166;2023-07-24T02:23:21;5.47;;;4.07;;
80340;SDS011;69656;44.498;0.166;2023-07-24T02:28:53;5.20;;;3.50;;
80340;SDS011;69656;44.498;0.166;2023-07-24T02:34:26;5.13;;;3.10;;
80340;SDS011;69656;44.498;0.166;2023-07-24T02:39:58;5.73;;;3.40;;
80340;SDS011;69656;44.498;0.166;2023-07-24T02:45:30;3.70;;;2.93;;
80340;SDS011;69656;44.498;0.166;2023-07-24T02:51:02;6.13;;;3.70;;
80340;SDS011;69656;44.498;0.166;2023-07-24T02:56:35;3.87;;;3.47;;
80340;SDS011;69656;44.498;0.166;2023-07-24T03:02:07;4.17;;;3.50;;
80340;SDS011;69656;44.498;0.166;2023-07-24T03:07:41;5.00;;;3.80;;
80340;SDS011;69656;44.498;0.166;2023-07-24T03:13:13;4.07;;;3.67;;
80340;SDS011;69656;44.498;0.166;2023-07-24T03:18:45;6.30;;;4.13;;
80340;SDS011;69656;44.498;0.166;2023-07-24T03:24:17;8.77;;;3.87;;
80340;SDS011;69656;44.498;0.166;2023-07-24T03:29:49;5.00;;;3.73;;
80340;SDS011;69656;44.498;0.166;2023-07-24T03:35:22;4.47;;;3.80;;
80340;SDS011;69656;44.498;0.166;2023-07-24T03:40:56;8.60;;;4.10;;
80340;SDS011;69656;44.498;0.166;2023-07-24T03:46:28;4.87;;;4.10;;
80340;SDS011;69656;44.498;0.166;2023-07-24T03:52:01;7.33;;;4.23;;
80340;SDS011;69656;44.498;0.166;2023-07-24T03:57:34;6.20;;;3.97;;
80340;SDS011;69656;44.498;0.166;2023-07-24T04:03:07;7.10;;;4.47;;
80340;SDS011;69656;44.498;0.166;2023-07-24T04:08:39;5.63;;;4.10;;
80340;SDS011;69656;44.498;0.166;2023-07-24T04:14:11;6.60;;;4.20;;
80340;SDS011;69656;44.498;0.166;2023-07-24T04:19:43;5.43;;;4.00;;
80340;SDS011;69656;44.498;0.166;2023-07-24T04:25:16;5.47;;;4.23;;
80340;SDS011;69656;44.498;0.166;2023-07-24T04:30:49;6.63;;;4.33;;
80340;SDS011;69656;44.498;0.166;2023-07-24T04:36:22;8.47;;;4.30;;
80340;SDS011;69656;44.498;0.166;2023-07-24T04:41:54;5.57;;;4.37;;
80340;SDS011;69656;44.498;0.166;2023-07-24T04:47:28;7.13;;;4.20;;
80340;SDS011;69656;44.498;0.166;2023-07-24T04:53:01;5.90;;;4.47;;
80340;SDS011;69656;44.498;0.166;2023-07-24T04:58:33;8.73;;;4.37;;
80340;SDS011;69656;44.498;0.166;2023-07-24T05:04:07;6.27;;;4.50;;
80340;SDS011;69656;44.498;0.166;2023-07-24T05:09:40;7.57;;;4.60;;
80340;SDS011;69656;44.498;0.166;2023-07-24T05:15:13;7.00;;;5.40;;
80340;SDS011;69656;44.498;0.166;2023-07-24T05:20:46;5.33;;;4.53;;
80340;SDS011;69656;44.498;0.166;2023-07-24T05:26:19;8.33;;;4.60;;
80340;SDS011;69656;44.498;0.166;2023-07-24T05:31:51;8.77;;;4.63;;
80340;SDS011;69656;44.498;0.166;2023-07-24T05:37:24;12.33;;;4.60;;
80340;SDS011;69656;44.498;0.166;2023-07-24T05:42:56;9.93;;;5.07;;
80340;SDS011;69656;44.498;0.166;2023-07-24T05:48:28;5.43;;;4.87;;
80340;SDS011;69656;44.498;0.166;2023-07-24T05:54:01;9.60;;;4.50;;
80340;SDS011;69656;44.498;0.166;2023-07-24T05:59:33;17.43;;;4.70;;
80340;SDS011;69656;44.498;0.166;2023-07-24T06:05:07;9.27;;;4.63;;
80340;SDS011;69656;44.498;0.166;2023-07-24T06:10:39;7.10;;;5.33;;
80340;SDS011;69656;44.498;0.166;2023-07-24T06:16:12;5.67;;;3.93;;
80340;SDS011;69656;44.498;0.166;2023-07-24T06:21:45;8.30;;;4.67;;
80340;SDS011;69656;44.498;0.166;2023-07-24T06:27:17;8.30;;;4.57;;
80340;SDS011;69656;44.498;0.166;2023-07-24T06:32:50;7.63;;;3.80;;
80340;SDS011;69656;44.498;0.166;2023-07-24T06:38:23;10.03;;;4.80;;
80340;SDS011;69656;44.498;0.166;2023-07-24T06:43:57;7.83;;;4.63;;
80340;SDS011;69656;44.498;0.166;2023-07-24T06:49:30;9.70;;;4.13;;
80340;SDS011;69656;44.498;0.166;2023-07-24T06:55:04;8.40;;;4.00;;
80340;SDS011;69656;44.498;0.166;2023-07-24T07:00:36;3.70;;;3.37;;
80340;SDS011;69656;44.498;0.166;2023-07-24T07:06:09;6.07;;;3.53;;
80340;SDS011;69656;44.498;0.166;2023-07-24T07:11:43;2.30;;;1.87;;
80340;SDS011;69656;44.498;0.166;2023-07-24T07:17:14;6.77;;;2.93;;
80340;SDS011;69656;44.498;0.166;2023-07-24T07:22:47;5.00;;;2.50;;
80340;SDS011;69656;44.498;0.166;2023-07-24T07:28:19;6.13;;;2.80;;
80340;SDS011;69656;44.498;0.166;2023-07-24T07:33:53;6.73;;;2.70;;
80340;SDS011;69656;44.498;0.166;2023-07-24T07:39:25;3.87;;;2.30;;
80340;SDS011;69656;44.498;0.166;2023-07-24T07:44:57;6.00;;;2.60;;
80340;SDS011;69656;44.498;0.166;2023-07-24T07:50:30;3.23;;;2.57;;
80340;SDS011;69656;44.498;0.166;2023-07-24T07:56:04;5.43;;;2.47;;
80340;SDS011;69656;44.498;0.166;2023-07-24T08:01:37;6.37;;;2.77;;
80340;SDS011;69656;44.498;0.166;2023-07-24T08:07:10;4.00;;;2.23;;
80340;SDS011;69656;44.498;0.166;2023-07-24T08:12:43;5.90;;;1.80;;
80340;SDS011;69656;44.498;0.166;2023-07-24T08:18:15;3.47;;;1.93;;
80340;SDS011;69656;44.498;0.166;2023-07-24T08:23:48;3.60;;;1.80;;
80340;SDS011;69656;44.498;0.166;2023-07-24T08:29:21;3.37;;;1.57;;
80340;SDS011;69656;44.498;0.166;2023-07-24T08:34:54;4.43;;;1.73;;
80340;SDS011;69656;44.498;0.166;2023-07-24T08:40:27;3.73;;;1.53;;
80340;SDS011;69656;44.498;0.166;2023-07-24T08:46:00;4.43;;;1.80;;
80340;SDS011;69656;44.498;0.166;2023-07-24T08:51:33;3.47;;;1.77;;
80340;SDS011;69656;44.498;0.166;2023-07-24T08:57:06;3.50;;;1.73;;
80340;SDS011;69656;44.498;0.166;2023-07-24T09:02:39;4.37;;;1.40;;
80340;SDS011;69656;44.498;0.166;2023-07-24T09:08:12;2.50;;;1.40;;
80340;SDS011;69656;44.498;0.166;2023-07-24T09:13:45;4.23;;;2.10;;
80340;SDS011;69656;44.498;0.166;2023-07-24T09:19:18;3.53;;;1.70;;
80340;SDS011;69656;44.498;0.166;2023-07-24T09:24:50;3.73;;;1.87;;
80340;SDS011;69656;44.498;0.166;2023-07-24T09:30:22;3.60;;;1.80;;
80340;SDS011;69656;44.498;0.166;2023-07-24T09:35:57;2.23;;;1.63;;
80340;SDS011;69656;44.498;0.166;2023-07-24T09:41:29;3.33;;;1.57;;
80340;SDS011;69656;44.498;0.166;2023-07-24T09:47:01;5.70;;;2.40;;
80340;SDS011;69656;44.498;0.166;2023-07-24T09:52:34;3.20;;;1.60;;
80340;SDS011;69656;44.498;0.166;2023-07-24T09:58:06;1.70;;;1.30;;
80340;SDS011;69656;44.498;0.166;2023-07-24T10:03:39;3.03;;;0.80;;
80340;SDS011;69656;44.498;0.166;2023-07-24T10:09:10;1.53;;;0.70;;
80340;SDS011;69656;44.498;0.166;2023-07-24T10:14:44;0.90;;;0.90;;
80340;SDS011;69656;44.498;0.166;2023-07-24T10:20:16;2.93;;;0.80;;
80340;SDS011;69656;44.498;0.166;2023-07-24T10:25:49;8.90;;;1.40;;
80340;SDS011;69656;44.498;0.166;2023-07-24T10:31:20;1.13;;;0.77;;
80340;SDS011;69656;44.498;0.166;2023-07-24T10:37:01;0.73;;;0.63;;
80340;SDS011;69656;44.498;0.166;2023-07-24T10:42:25;1.47;;;1.10;;
80340;SDS011;69656;44.498;0.166;2023-07-24T10:47:58;4.13;;;1.00;;
80340;SDS011;69656;44.498;0.166;2023-07-24T10:53:32;4.57;;;1.53;;
80340;SDS011;69656;44.498;0.166;2023-07-24T10:59:05;5.10;;;1.73;;
80340;SDS011;69656;44.498;0.166;2023-07-24T11:04:38;3.47;;;1.40;;
80340;SDS011;69656;44.498;0.166;2023-07-24T11:10:14;3.50;;;1.63;;
80340;SDS011;69656;44.498;0.166;2023-07-24T11:15:42;5.07;;;1.93;;
80340;SDS011;69656;44.498;0.166;2023-07-24T11:21:14;3.97;;;1.90;;
80340;SDS011;69656;44.498;0.166;2023-07-24T11:26:48;3.53;;;1.73;;
80340;SDS011;69656;44.498;0.166;2023-07-24T11:32:21;2.53;;;1.60;;
80340;SDS011;69656;44.498;0.166;2023-07-24T11:37:54;2.53;;;1.80;;
80340;SDS011;69656;44.498;0.166;2023-07-24T11:43:27;2.27;;;1.80;;
80340;SDS011;69656;44.498;0.166;2023-07-24T11:49:00;4.80;;;2.00;;
80340;SDS011;69656;44.498;0.166;2023-07-24T11:54:33;2.60;;;1.30;;
80340;SDS011;69656;44.498;0.166;2023-07-24T12:00:05;1.20;;;1.13;;
80340;SDS011;69656;44.498;0.166;2023-07-24T12:05:38;5.27;;;1.50;;
80340;SDS011;69656;44.498;0.166;2023-07-24T12:11:16;5.43;;;1.67;;
80340;SDS011;69656;44.498;0.166;2023-07-24T12:16:44;4.10;;;1.67;;
80340;SDS011;69656;44.498;0.166;2023-07-24T12:22:17;5.97;;;1.30;;
80340;SDS011;69656;44.498;0.166;2023-07-24T12:27:50;4.10;;;1.90;;
80340;SDS011;69656;44.498;0.166;2023-07-24T12:33:23;3.67;;;1.50;;
80340;SDS011;69656;44.498;0.166;2023-07-24T12:38:56;3.37;;;1.50;;
80340;SDS011;69656;44.498;0.166;2023-07-24T12:44:29;2.57;;;1.80;;
80340;SDS011;69656;44.498;0.166;2023-07-24T12:50:01;4.90;;;1.30;;
80340;SDS011;69656;44.498;0.166;2023-07-24T12:55:35;3.83;;;1.90;;
80340;SDS011;69656;44.498;0.166;2023-07-24T13:01:08;4.13;;;1.57;;
80340;SDS011;69656;44.498;0.166;2023-07-24T13:06:40;4.57;;;1.90;;
80340;SDS011;69656;44.498;0.166;2023-07-24T13:12:13;1.77;;;1.30;;
80340;SDS011;69656;44.498;0.166;2023-07-24T13:17:46;3.10;;;1.47;;
80340;SDS011;69656;44.498;0.166;2023-07-24T13:23:18;3.50;;;1.43;;
80340;SDS011;69656;44.498;0.166;2023-07-24T13:28:49;3.70;;;1.23;;
80340;SDS011;69656;44.498;0.166;2023-07-24T13:34:23;9.33;;;1.87;;
80340;SDS011;69656;44.498;0.166;2023-07-24T13:39:57;0.87;;;0.67;;
80340;SDS011;69656;44.498;0.166;2023-07-24T13:45:29;3.30;;;0.87;;
80340;SDS011;69656;44.498;0.166;2023-07-24T13:51:03;1.17;;;1.07;;
80340;SDS011;69656;44.498;0.166;2023-07-24T13:56:35;2.73;;;1.53;;
80340;SDS011;69656;44.498;0.166;2023-07-24T14:02:06;1.60;;;1.20;;
80340;SDS011;69656;44.498;0.166;2023-07-24T14:07:39;16.90;;;1.93;;
80340;SDS011;69656;44.498;0.166;2023-07-24T14:13:11;3.60;;;1.40;;
80340;SDS011;69656;44.498;0.166;2023-07-24T14:18:45;3.27;;;1.60;;
80340;SDS011;69656;44.498;0.166;2023-07-24T14:24:16;5.40;;;1.57;;
80340;SDS011;69656;44.498;0.166;2023-07-24T14:29:50;6.23;;;1.70;;
80340;SDS011;69656;44.498;0.166;2023-07-24T14:35:23;1.40;;;1.30;;
80340;SDS011;69656;44.498;0.166;2023-07-24T14:40:56;3.30;;;1.40;;
80340;SDS011;69656;44.498;0.166;2023-07-24T14:46:29;1.63;;;0.80;;
80340;SDS011;69656;44.498;0.166;2023-07-24T14:52:02;5.03;;;1.47;;
80340;SDS011;69656;44.498;0.166;2023-07-24T14:57:35;2.33;;;1.20;;
80340;SDS011;69656;44.498;0.166;2023-07-24T15:03:07;0.93;;;0.87;;
80340;SDS011;69656;44.498;0.166;2023-07-24T15:08:40;3.00;;;1.43;;
80340;SDS011;69656;44.498;0.166;2023-07-24T15:14:14;0.37;;;0.37;;
80340;SDS011;69656;44.498;0.166;2023-07-24T15:19:45;5.73;;;1.43;;
80340;SDS011;69656;44.498;0.166;2023-07-24T15:25:19;2.83;;;0.77;;
80340;SDS011;69656;44.498;0.166;2023-07-24T15:30:52;2.03;;;1.43;;
80340;SDS011;69656;44.498;0.166;2023-07-24T15:36:25;3.57;;;1.40;;
80340;SDS011;69656;44.498;0.166;2023-07-24T15:41:58;4.80;;;1.40;;
80340;SDS011;69656;44.498;0.166;2023-07-24T15:47:31;3.80;;;1.50;;
80340;SDS011;69656;44.498;0.166;2023-07-24T15:53:02;4.03;;;1.47;;
80340;SDS011;69656;44.498;0.166;2023-07-24T15:58:35;2.10;;;0.70;;
80340;SDS011;69656;44.498;0.166;2023-07-24T16:04:08;1.43;;;1.03;;
80340;SDS011;69656;44.498;0.166;2023-07-24T16:09:42;5.80;;;1.13;;
80340;SDS011;69656;44.498;0.166;2023-07-24T16:15:14;7.87;;;1.50;;
80340;SDS011;69656;44.498;0.166;2023-07-24T16:20:47;6.40;;;2.00;;
80340;SDS011;69656;44.498;0.166;2023-07-24T16:26:19;3.10;;;1.27;;
80340;SDS011;69656;44.498;0.166;2023-07-24T16:31:53;4.60;;;1.53;;
80340;SDS011;69656;44.498;0.166;2023-07-24T16:37:26;4.40;;;1.20;;
80340;SDS011;69656;44.498;0.166;2023-07-24T16:42:58;2.67;;;1.30;;
80340;SDS011;69656;44.498;0.166;2023-07-24T16:48:32;2.80;;;1.30;;
80340;SDS011;69656;44.498;0.166;2023-07-24T16:54:04;1.67;;;1.10;;
80340;SDS011;69656;44.498;0.166;2023-07-24T16:59:36;1.53;;;1.07;;
80340;SDS011;69656;44.498;0.166;2023-07-24T17:05:08;3.77;;;1.30;;
80340;SDS011;69656;44.498;0.166;2023-07-24T17:10:43;1.73;;;1.00;;
80340;SDS011;69656;44.498;0.166;2023-07-24T17:16:14;2.43;;;1.43;;
80340;SDS011;69656;44.498;0.166;2023-07-24T17:21:46;2.07;;;1.23;;
80340;SDS011;69656;44.498;0.166;2023-07-24T17:27:19;5.17;;;1.20;;
80340;SDS011;69656;44.498;0.166;2023-07-24T17:32:52;1.70;;;0.97;;
80340;SDS011;69656;44.498;0.166;2023-07-24T17:38:24;1.80;;;1.40;;
80340;SDS011;69656;44.498;0.166;2023-07-24T17:43:56;6.83;;;1.50;;
80340;SDS011;69656;44.498;0.166;2023-07-24T17:49:30;2.50;;;1.30;;
80340;SDS011;69656;44.498;0.166;2023-07-24T17:55:02;1.40;;;0.97;;
80340;SDS011;69656;44.498;0.166;2023-07-24T18:00:35;3.40;;;0.90;;
80340;SDS011;69656;44.498;0.166;2023-07-24T18:06:08;2.60;;;1.30;;
80340;SDS011;69656;44.498;0.166;2023-07-24T18:11:41;1.73;;;1.50;;
80340;SDS011;69656;44.498;0.166;2023-07-24T18:17:14;2.20;;;1.10;;
80340;SDS011;69656;44.498;0.166;2023-07-24T18:22:46;1.90;;;1.27;;
80340;SDS011;69656;44.498;0.166;2023-07-24T18:28:19;2.97;;;1.13;;
80340;SDS011;69656;44.498;0.166;2023-07-24T18:33:52;6.03;;;1.97;;
80340;SDS011;69656;44.498;0.166;2023-07-24T18:39:25;3.57;;;1.47;;
80340;SDS011;69656;44.498;0.166;2023-07-24T18:44:57;4.43;;;1.63;;
80340;SDS011;69656;44.498;0.166;2023-07-24T18:50:29;5.30;;;1.17;;
80340;SDS011;69656;44.498;0.166;2023-07-24T18:56:02;3.53;;;1.10;;
80340;SDS011;69656;44.498;0.166;2023-07-24T19:01:35;5.73;;;1.17;;
80340;SDS011;69656;44.498;0.166;2023-07-24T19:07:08;3.10;;;1.00;;
80340;SDS011;69656;44.498;0.166;2023-07-24T19:12:40;5.80;;;1.50;;
80340;SDS011;69656;44.498;0.166;2023-07-24T19:18:12;5.47;;;1.13;;
80340;SDS011;69656;44.498;0.166;2023-07-24T19:23:45;1.63;;;1.10;;
80340;SDS011;69656;44.498;0.166;2023-07-24T19:29:18;1.97;;;1.00;;
80340;SDS011;69656;44.498;0.166;2023-07-24T19:34:51;1.70;;;1.17;;
80340;SDS011;69656;44.498;0.166;2023-07-24T19:40:24;5.33;;;1.10;;
80340;SDS011;69656;44.498;0.166;2023-07-24T19:45:57;2.93;;;1.20;;
80340;SDS011;69656;44.498;0.166;2023-07-24T19:51:29;3.83;;;1.00;;
80340;SDS011;69656;44.498;0.166;2023-07-24T19:57:01;1.47;;;1.20;;
80340;SDS011;69656;44.498;0.166;2023-07-24T20:02:34;1.17;;;0.80;;
80340;SDS011;69656;44.498;0.166;2023-07-24T20:08:07;2.87;;;1.27;;
80340;SDS011;69656;44.498;0.166;2023-07-24T20:13:39;1.47;;;1.00;;
80340;SDS011;69656;44.498;0.166;2023-07-24T20:19:13;1.60;;;0.80;;
80340;SDS011;69656;44.498;0.166;2023-07-24T20:24:45;3.30;;;1.20;;
80340;SDS011;69656;44.498;0.166;2023-07-24T20:30:19;1.37;;;0.80;;
80340;SDS011;69656;44.498;0.166;2023-07-24T20:35:52;3.30;;;1.07;;
80340;SDS011;69656;44.498;0.166;2023-07-24T20:41:24;2.37;;;1.40;;
80340;SDS011;69656;44.498;0.166;2023-07-24T20:46:57;4.27;;;1.60;;
80340;SDS011;69656;44.498;0.166;2023-07-24T20:52:30;9.03;;;1.60;;
80340;SDS011;69656;44.498;0.166;2023-07-24T20:58:02;7.03;;;1.20;;
80340;SDS011;69656;44.498;0.166;2023-07-24T21:03:35;1.17;;;0.60;;
80340;SDS011;69656;44.498;0.166;2023-07-24T21:09:07;4.30;;;1.73;;
80340;SDS011;69656;44.498;0.166;2023-07-24T21:14:39;9.07;;;2.23;;
80340;SDS011;69656;44.498;0.166;2023-07-24T21:20:12;8.97;;;1.70;;
80340;SDS011;69656;44.498;0.166;2023-07-24T21:25:50;5.17;;;2.27;;
80340;SDS011;69656;44.498;0.166;2023-07-24T21:31:17;9.30;;;2.40;;
80340;SDS011;69656;44.498;0.166;2023-07-24T21:36:49;15.37;;;2.37;;
80340;SDS011;69656;44.498;0.166;2023-07-24T21:42:22;6.33;;;1.60;;
80340;SDS011;69656;44.498;0.166;2023-07-24T21:47:55;3.30;;;1.53;;
80340;SDS011;69656;44.498;0.166;2023-07-24T21:53:28;6.03;;;2.30;;
80340;SDS011;69656;44.498;0.166;2023-07-24T21:58:59;9.00;;;3.03;;
80340;SDS011;69656;44.498;0.166;2023-07-24T22:04:32;6.70;;;2.20;;
80340;SDS011;69656;44.498;0.166;2023-07-24T22:10:04;7.60;;;2.30;;
80340;SDS011;69656;44.498;0.166;2023-07-24T22:15:37;5.17;;;1.67;;
80340;SDS011;69656;44.498;0.166;2023-07-24T22:21:09;9.23;;;1.97;;
80340;SDS011;69656;44.498;0.166;2023-07-24T22:26:41;6.77;;;2.03;;
80340;SDS011;69656;44.498;0.166;2023-07-24T22:32:14;6.83;;;1.87;;
80340;SDS011;69656;44.498;0.166;2023-07-24T22:37:48;9.00;;;2.47;;
80340;SDS011;69656;44.498;0.166;2023-07-24T22:43:20;9.37;;;1.90;;
80340;SDS011;69656;44.498;0.166;2023-07-24T22:48:52;7.50;;;2.57;;
80340;SDS011;69656;44.498;0.166;2023-07-24T22:54:25;8.53;;;1.97;;
80340;SDS011;69656;44.498;0.166;2023-07-24T22:59:58;6.53;;;1.50;;
80340;SDS011;69656;44.498;0.166;2023-07-24T23:05:31;4.63;;;2.50;;
80340;SDS011;69656;44.498;0.166;2023-07-24T23:11:04;8.40;;;1.80;;
80340;SDS011;69656;44.498;0.166;2023-07-24T23:16:37;8.43;;;2.27;;
80340;SDS011;69656;44.498;0.166;2023-07-24T23:22:09;6.63;;;2.50;;
80340;SDS011;69656;44.498;0.166;2023-07-24T23:27:43;12.97;;;2.87;;
80340;SDS011;69656;44.498;0.166;2023-07-24T23:33:16;9.40;;;2.30;;
80340;SDS011;69656;44.498;0.166;2023-07-24T23:38:49;6.73;;;2.07;;
80340;SDS011;69656;44.498;0.166;2023-07-24T23:44:22;5.13;;;2.37;;
80340;SDS011;69656;44.498;0.166;2023-07-24T23:49:57;11.77;;;2.33;;
80340;SDS011;69656;44.498;0.166;2023-07-24T23:55:29;7.80;;;2.73;;
